sensor_id;sensor_type;location;lat;lon;timestamp;pressure;altitude;pressure_sealevel;temperature;humidity
58775;BME280;44545;47.480;19.024;2023-05-03T03:12:23;100415.69;;;13.27;100.00
58775;BME280;44545;47.480;19.024;2023-05-03T03:15:28;100413.81;;;13.24;100.00
58775;BME280;44545;47.480;19.024;2023-05-03T03:18:31;100428.09;;;13.31;100.00
58775;BME280;44545;47.480;19.024;2023-05-03T03:21:33;100422.78;;;13.29;100.00
58775;BME280;44545;47.480;19.024;2023-05-03T03:24:37;100418.53;;;13.31;100.00
58775;BME280;44545;47.480;19.024;2023-05-03T03:27:40;100421.62;;;13.22;100.00
58775;BME280;44545;47.480;19.024;2023-05-03T03:30:42;100422.75;;;13.28;100.00
58775;BME280;44545;47.480;19.024;2023-05-03T03:33:46;100425.56;;;13.32;100.00
58775;BME280;44545;47.480;19.024;2023-05-03T03:36:48;100419.41;;;13.32;100.00
58775;BME280;44545;47.480;19.024;2023-05-03T03:39:51;100424.81;;;13.35;100.00
58775;BME280;44545;47.480;19.024;2023-05-03T03:42:56;100413.50;;;13.36;100.00
58775;BME280;44545;47.480;19.024;2023-05-03T03:45:59;100420.47;;;13.35;100.00
58775;BME280;44545;47.480;19.024;2023-05-03T03:49:01;100429.97;;;13.33;100.00
58775;BME280;44545;47.480;19.024;2023-05-03T03:52:05;100437.75;;;13.32;100.00
58775;BME280;44545;47.480;19.024;2023-05-03T03:55:09;100435.50;;;13.21;100.00
58775;BME280;44545;47.480;19.024;2023-05-03T03:58:13;100438.88;;;13.19;100.00
58775;BME280;44545;47.480;19.024;2023-05-03T04:01:15;100444.63;;;13.10;100.00
58775;BME280;44545;47.480;19.024;2023-05-03T04:04:18;100441.13;;;13.29;100.00
58775;BME280;44545;47.480;19.024;2023-05-03T04:07:21;100434.44;;;13.36;100.00
58775;BME280;44545;47.480;19.024;2023-05-03T04:10:24;100443.34;;;13.39;100.00
58775;BME280;44545;47.480;19.024;2023-05-03T04:13:26;100450.13;;;13.34;100.00
58775;BME280;44545;47.480;19.024;2023-05-03T04:16:29;100446.34;;;13.29;100.00
58775;BME280;44545;47.480;19.024;2023-05-03T04:19:33;100447.94;;;13.26;100.00
58775;BME280;44545;47.480;19.024;2023-05-03T04:22:37;100442.84;;;13.29;100.00
58775;BME280;44545;47.480;19.024;2023-05-03T04:25:43;100445.00;;;13.37;100.00
58775;BME280;44545;47.480;19.024;2023-05-03T04:28:50;100448.94;;;13.28;100.00
58775;BME280;44545;47.480;19.024;2023-05-03T04:31:53;100455.19;;;13.31;100.00
58775;BME280;44545;47.480;19.024;2023-05-03T04:34:56;100450.37;;;13.40;100.00
58775;BME280;44545;47.480;19.024;2023-05-03T04:38:01;100458.16;;;13.39;100.00
58775;BME280;44545;47.480;19.024;2023-05-03T04:41:04;100465.53;;;13.48;100.00
58775;BME280;44545;47.480;19.024;2023-05-03T04:44:07;100471.03;;;13.54;100.00
58775;BME280;44545;47.480;19.024;2023-05-03T04:47:10;100465.78;;;13.54;100.00
58775;BME280;44545;47.480;19.024;2023-05-03T04:50:15;100464.37;;;13.62;100.00
58775;BME280;44545;47.480;19.024;2023-05-03T04:53:18;100462.69;;;13.62;100.00
58775;BME280;44545;47.480;19.024;2023-05-03T04:56:21;100465.44;;;13.65;100.00
58775;BME280;44545;47.480;19.024;2023-05-03T04:59:28;100470.09;;;13.73;100.00
58775;BME280;44545;47.480;19.024;2023-05-03T05:02:30;100480.47;;;13.91;100.00
58775;BME280;44545;47.480;19.024;2023-05-03T05:05:33;100481.88;;;14.03;100.00
58775;BME280;44545;47.480;19.024;2023-05-03T05:08:37;100470.50;;;14.03;100.00
58775;BME280;44545;47.480;19.024;2023-05-03T05:11:40;100478.16;;;14.19;100.00
58775;BME280;44545;47.480;19.024;2023-05-03T05:14:43;100481.09;;;14.27;100.00
58775;BME280;44545;47.480;19.024;2023-05-03T05:17:45;100474.13;;;14.27;100.00
58775;BME280;44545;47.480;19.024;2023-05-03T05:20:48;100479.38;;;14.48;100.00
58775;BME280;44545;47.480;19.024;2023-05-03T05:23:52;100474.59;;;14.61;100.00
58775;BME280;44545;47.480;19.024;2023-05-03T05:26:54;100473.00;;;14.64;100.00
58775;BME280;44545;47.480;19.024;2023-05-03T05:29:57;100469.06;;;14.76;100.00
58775;BME280;44545;47.480;19.024;2023-05-03T05:33:00;100478.44;;;14.91;100.00
58775;BME280;44545;47.480;19.024;2023-05-03T05:36:03;100475.44;;;15.05;100.00
58775;BME280;44545;47.480;19.024;2023-05-03T05:39:06;100477.16;;;15.27;100.00
58775;BME280;44545;47.480;19.024;2023-05-03T05:42:08;100470.47;;;15.60;100.00
58775;BME280;44545;47.480;19.024;2023-05-03T05:45:11;100479.91;;;15.79;100.00
58775;BME280;44545;47.480;19.024;2023-05-03T05:48:14;100477.16;;;16.02;100.00
58775;BME280;44545;47.480;19.024;2023-05-03T05:51:17;100476.59;;;16.11;100.00
58775;BME280;44545;47.480;19.024;2023-05-03T05:54:19;100479.34;;;16.15;100.00
58775;BME280;44545;47.480;19.024;2023-05-03T05:57:22;100478.09;;;16.30;100.00
58775;BME280;44545;47.480;19.024;2023-05-03T06:00:24;100493.19;;;16.08;100.00
58775;BME280;44545;47.480;19.024;2023-05-03T06:03:27;100508.22;;;15.87;100.00
58775;BME280;44545;47.480;19.024;2023-05-03T06:06:29;100512.16;;;15.74;100.00
58775;BME280;44545;47.480;19.024;2023-05-03T06:09:32;100511.47;;;15.79;100.00
58775;BME280;44545;47.480;19.024;2023-05-03T06:12:35;100516.25;;;15.91;100.00
58775;BME280;44545;47.480;19.024;2023-05-03T06:15:40;100521.69;;;15.72;100.00
58775;BME280;44545;47.480;19.024;2023-05-03T06:18:42;100529.38;;;15.67;100.00
58775;BME280;44545;47.480;19.024;2023-05-03T06:21:44;100538.19;;;15.92;100.00
58775;BME280;44545;47.480;19.024;2023-05-03T06:24:47;100537.12;;;16.12;100.00
58775;BME280;44545;47.480;19.024;2023-05-03T06:27:49;100540.06;;;16.47;100.00
58775;BME280;44545;47.480;19.024;2023-05-03T06:30:52;100536.84;;;16.83;100.00
58775;BME280;44545;47.480;19.024;2023-05-03T06:33:55;100539.63;;;17.16;100.00
58775;BME280;44545;47.480;19.024;2023-05-03T06:36:57;100552.22;;;17.25;100.00
58775;BME280;44545;47.480;19.024;2023-05-03T06:40:00;100555.91;;;17.62;100.00
58775;BME280;44545;47.480;19.024;2023-05-03T06:43:03;100552.25;;;17.87;100.00
58775;BME280;44545;47.480;19.024;2023-05-03T06:46:06;100550.91;;;18.03;100.00
58775;BME280;44545;47.480;19.024;2023-05-03T06:49:08;100551.34;;;18.19;97.76
58775;BME280;44545;47.480;19.024;2023-05-03T06:52:11;100547.72;;;18.51;100.00
58775;BME280;44545;47.480;19.024;2023-05-03T06:55:13;100544.84;;;18.40;89.32
58775;BME280;44545;47.480;19.024;2023-05-03T06:58:15;100548.16;;;18.33;95.78
58775;BME280;44545;47.480;19.024;2023-05-03T07:01:18;100556.06;;;18.31;92.35
58775;BME280;44545;47.480;19.024;2023-05-03T07:04:22;100543.56;;;18.60;95.72
58775;BME280;44545;47.480;19.024;2023-05-03T07:07:24;100542.94;;;19.07;95.18
58775;BME280;44545;47.480;19.024;2023-05-03T07:10:26;100543.41;;;19.28;84.52
58775;BME280;44545;47.480;19.024;2023-05-03T07:13:32;100544.88;;;19.16;85.61
58775;BME280;44545;47.480;19.024;2023-05-03T07:16:35;100538.19;;;18.92;85.49
58775;BME280;44545;47.480;19.024;2023-05-03T07:19:37;100542.78;;;18.99;86.67
58775;BME280;44545;47.480;19.024;2023-05-03T07:22:40;100545.97;;;19.25;83.17
58775;BME280;44545;47.480;19.024;2023-05-03T07:25:43;100537.44;;;19.37;83.07
58775;BME280;44545;47.480;19.024;2023-05-03T07:28:47;100539.47;;;19.51;84.19
58775;BME280;44545;47.480;19.024;2023-05-03T07:31:49;100538.59;;;19.09;80.75
58775;BME280;44545;47.480;19.024;2023-05-03T07:34:54;100545.16;;;18.89;81.81
58775;BME280;44545;47.480;19.024;2023-05-03T07:37:57;100550.00;;;19.08;80.71
58775;BME280;44545;47.480;19.024;2023-05-03T07:40:59;100546.53;;;19.11;82.61
58775;BME280;44545;47.480;19.024;2023-05-03T07:44:04;100549.72;;;19.37;77.92
58775;BME280;44545;47.480;19.024;2023-05-03T07:47:07;100548.13;;;19.87;77.27
58775;BME280;44545;47.480;19.024;2023-05-03T07:50:09;100547.62;;;20.05;81.33
58775;BME280;44545;47.480;19.024;2023-05-03T07:53:13;100547.38;;;20.43;73.83
58775;BME280;44545;47.480;19.024;2023-05-03T07:56:15;100548.53;;;20.56;75.89
58775;BME280;44545;47.480;19.024;2023-05-03T07:59:18;100545.09;;;20.62;72.58
58775;BME280;44545;47.480;19.024;2023-05-03T08:02:20;100545.50;;;20.89;72.20
58775;BME280;44545;47.480;19.024;2023-05-03T08:05:23;100548.16;;;20.89;68.97
58775;BME280;44545;47.480;19.024;2023-05-03T08:08:26;100555.75;;;20.68;69.42
58775;BME280;44545;47.480;19.024;2023-05-03T08:11:29;100550.62;;;20.77;69.10
58775;BME280;44545;47.480;19.024;2023-05-03T08:14:31;100548.75;;;21.32;65.78
58775;BME280;44545;47.480;19.024;2023-05-03T08:17:39;100556.66;;;20.68;69.71
58775;BME280;44545;47.480;19.024;2023-05-03T08:20:42;100562.19;;;20.82;68.50
58775;BME280;44545;47.480;19.024;2023-05-03T08:23:45;100564.09;;;20.92;67.97
58775;BME280;44545;47.480;19.024;2023-05-03T08:26:47;100559.34;;;20.70;64.66
58775;BME280;44545;47.480;19.024;2023-05-03T08:29:50;100563.22;;;20.93;68.75
58775;BME280;44545;47.480;19.024;2023-05-03T08:32:52;100558.00;;;20.96;64.09
58775;BME280;44545;47.480;19.024;2023-05-03T08:35:56;100566.16;;;21.12;62.75
58775;BME280;44545;47.480;19.024;2023-05-03T08:38:58;100568.94;;;21.19;65.98
58775;BME280;44545;47.480;19.024;2023-05-03T08:42:05;100563.19;;;21.50;60.77
58775;BME280;44545;47.480;19.024;2023-05-03T08:45:12;100570.13;;;21.41;62.16
58775;BME280;44545;47.480;19.024;2023-05-03T08:48:17;100566.31;;;21.91;63.87
58775;BME280;44545;47.480;19.024;2023-05-03T08:51:21;100577.44;;;21.61;59.60
58775;BME280;44545;47.480;19.024;2023-05-03T08:54:24;100580.69;;;22.12;58.36
58775;BME280;44545;47.480;19.024;2023-05-03T08:57:27;100572.09;;;22.34;57.15
58775;BME280;44545;47.480;19.024;2023-05-03T09:00:29;100571.72;;;22.02;62.72
58775;BME280;44545;47.480;19.024;2023-05-03T09:03:35;100573.59;;;22.12;59.08
58775;BME280;44545;47.480;19.024;2023-05-03T09:06:38;100567.53;;;23.37;53.37
58775;BME280;44545;47.480;19.024;2023-05-03T09:09:41;100561.63;;;22.54;56.18
58775;BME280;44545;47.480;19.024;2023-05-03T09:12:48;100561.84;;;22.82;55.92
58775;BME280;44545;47.480;19.024;2023-05-03T09:15:54;100558.41;;;22.97;57.49
58775;BME280;44545;47.480;19.024;2023-05-03T09:19:01;100566.53;;;23.18;53.75
58775;BME280;44545;47.480;19.024;2023-05-03T09:22:06;100556.31;;;22.56;55.11
58775;BME280;44545;47.480;19.024;2023-05-03T09:25:09;100564.78;;;23.23;57.69
58775;BME280;44545;47.480;19.024;2023-05-03T09:28:14;100568.50;;;23.57;54.13
58775;BME280;44545;47.480;19.024;2023-05-03T09:31:17;100568.47;;;23.51;52.71
58775;BME280;44545;47.480;19.024;2023-05-03T09:34:22;100570.25;;;23.57;53.11
58775;BME280;44545;47.480;19.024;2023-05-03T09:37:35;100569.03;;;22.95;54.85
58775;BME280;44545;47.480;19.024;2023-05-03T09:40:46;100560.31;;;23.14;53.96
58775;BME280;44545;47.480;19.024;2023-05-03T09:43:50;100569.28;;;23.30;54.35
58775;BME280;44545;47.480;19.024;2023-05-03T09:47:06;100567.59;;;23.52;56.40
58775;BME280;44545;47.480;19.024;2023-05-03T09:50:08;100563.94;;;23.29;57.63
58775;BME280;44545;47.480;19.024;2023-05-03T09:53:11;100564.22;;;23.95;55.87
58775;BME280;44545;47.480;19.024;2023-05-03T09:56:14;100566.78;;;23.70;53.11
58775;BME280;44545;47.480;19.024;2023-05-03T09:59:17;100568.38;;;23.30;53.10
58775;BME280;44545;47.480;19.024;2023-05-03T10:02:19;100568.28;;;23.10;57.18
58775;BME280;44545;47.480;19.024;2023-05-03T10:05:23;100567.19;;;22.85;57.25
58775;BME280;44545;47.480;19.024;2023-05-03T10:08:39;100563.19;;;22.31;53.56
58775;BME280;44545;47.480;19.024;2023-05-03T10:11:47;100559.69;;;22.38;55.99
58775;BME280;44545;47.480;19.024;2023-05-03T10:14:52;100558.81;;;22.37;59.23
58775;BME280;44545;47.480;19.024;2023-05-03T10:17:58;100556.31;;;22.54;59.98
58775;BME280;44545;47.480;19.024;2023-05-03T10:21:13;100563.91;;;22.17;58.66
58775;BME280;44545;47.480;19.024;2023-05-03T10:24:20;100560.53;;;22.29;56.01
58775;BME280;44545;47.480;19.024;2023-05-03T10:27:23;100559.69;;;22.38;59.98
58775;BME280;44545;47.480;19.024;2023-05-03T10:30:35;100556.13;;;22.31;58.89
58775;BME280;44545;47.480;19.024;2023-05-03T10:33:38;100559.81;;;22.48;58.53
58775;BME280;44545;47.480;19.024;2023-05-03T10:36:41;100561.66;;;21.70;62.70
58775;BME280;44545;47.480;19.024;2023-05-03T10:39:51;100559.13;;;21.84;62.83
58775;BME280;44545;47.480;19.024;2023-05-03T10:42:54;100553.75;;;21.76;59.92
58775;BME280;44545;47.480;19.024;2023-05-03T10:46:05;100559.69;;;21.57;64.16
58775;BME280;44545;47.480;19.024;2023-05-03T10:49:20;100542.31;;;21.12;62.02
58775;BME280;44545;47.480;19.024;2023-05-03T10:55:59;100546.41;;;20.91;62.32
58775;BME280;44545;47.480;19.024;2023-05-03T10:59:02;100545.22;;;20.71;65.58
58775;BME280;44545;47.480;19.024;2023-05-03T11:02:04;100554.12;;;20.76;69.00
58775;BME280;44545;47.480;19.024;2023-05-03T11:05:09;100545.81;;;21.11;66.07
58775;BME280;44545;47.480;19.024;2023-05-03T11:08:14;100545.84;;;21.14;63.78
58775;BME280;44545;47.480;19.024;2023-05-03T11:11:20;100544.25;;;21.25;64.63
58775;BME280;44545;47.480;19.024;2023-05-03T11:14:23;100538.84;;;21.19;66.00
58775;BME280;44545;47.480;19.024;2023-05-03T11:17:25;100543.84;;;20.97;65.16
58775;BME280;44545;47.480;19.024;2023-05-03T11:20:30;100544.19;;;20.61;68.23
58775;BME280;44545;47.480;19.024;2023-05-03T11:23:32;100552.66;;;20.95;67.63
58775;BME280;44545;47.480;19.024;2023-05-03T11:26:38;100541.28;;;21.04;63.41
58775;BME280;44545;47.480;19.024;2023-05-03T11:29:47;100544.81;;;21.03;62.95
58775;BME280;44545;47.480;19.024;2023-05-03T11:32:50;100538.47;;;20.93;65.27
58775;BME280;44545;47.480;19.024;2023-05-03T11:35:54;100547.16;;;20.83;66.20
58775;BME280;44545;47.480;19.024;2023-05-03T11:38:57;100542.13;;;20.99;65.72
58775;BME280;44545;47.480;19.024;2023-05-03T11:42:01;100536.53;;;20.80;65.99
58775;BME280;44545;47.480;19.024;2023-05-03T11:45:04;100537.25;;;20.69;62.06
58775;BME280;44545;47.480;19.024;2023-05-03T11:48:09;100536.72;;;20.40;65.52
58775;BME280;44545;47.480;19.024;2023-05-03T11:51:11;100535.94;;;20.44;66.58
58775;BME280;44545;47.480;19.024;2023-05-03T11:54:15;100537.50;;;20.33;66.05
58775;BME280;44545;47.480;19.024;2023-05-03T11:57:28;100537.34;;;20.24;68.25
58775;BME280;44545;47.480;19.024;2023-05-03T12:00:33;100533.94;;;20.31;66.09
58775;BME280;44545;47.480;19.024;2023-05-03T12:03:35;100539.66;;;20.55;67.86
58775;BME280;44545;47.480;19.024;2023-05-03T12:06:38;100534.78;;;20.28;68.33
58775;BME280;44545;47.480;19.024;2023-05-03T12:09:43;100535.75;;;20.35;67.70
58775;BME280;44545;47.480;19.024;2023-05-03T12:12:58;100539.44;;;20.43;67.91
58775;BME280;44545;47.480;19.024;2023-05-03T12:16:03;100537.44;;;20.30;68.88
58775;BME280;44545;47.480;19.024;2023-05-03T12:19:26;100530.34;;;20.26;69.02
58775;BME280;44545;47.480;19.024;2023-05-03T12:22:33;100539.41;;;20.42;68.22
58775;BME280;44545;47.480;19.024;2023-05-03T12:25:36;100532.28;;;20.36;69.79
58775;BME280;44545;47.480;19.024;2023-05-03T12:28:41;100527.09;;;20.45;65.79
58775;BME280;44545;47.480;19.024;2023-05-03T12:31:44;100527.22;;;20.51;65.82
58775;BME280;44545;47.480;19.024;2023-05-03T12:34:54;100521.31;;;20.66;65.73
58775;BME280;44545;47.480;19.024;2023-05-03T12:37:58;100512.63;;;20.76;65.49
58775;BME280;44545;47.480;19.024;2023-05-03T12:41:04;100517.44;;;20.47;67.57
58775;BME280;44545;47.480;19.024;2023-05-03T12:44:10;100511.47;;;20.61;67.70
58775;BME280;44545;47.480;19.024;2023-05-03T12:47:12;100514.78;;;20.47;67.96
58775;BME280;44545;47.480;19.024;2023-05-03T12:50:27;100514.69;;;20.41;67.06
58775;BME280;44545;47.480;19.024;2023-05-03T12:53:32;100505.91;;;20.44;69.45
58775;BME280;44545;47.480;19.024;2023-05-03T12:56:39;100503.31;;;20.48;68.65
58775;BME280;44545;47.480;19.024;2023-05-03T12:59:49;100496.16;;;20.43;67.79
58775;BME280;44545;47.480;19.024;2023-05-03T13:02:58;100502.25;;;20.37;69.73
58775;BME280;44545;47.480;19.024;2023-05-03T13:06:04;100498.22;;;20.06;72.94
58775;BME280;44545;47.480;19.024;2023-05-03T13:09:15;100500.59;;;19.90;70.04
58775;BME280;44545;47.480;19.024;2023-05-03T13:12:21;100499.56;;;19.84;71.56
58775;BME280;44545;47.480;19.024;2023-05-03T13:15:23;100504.69;;;19.75;74.75
58775;BME280;44545;47.480;19.024;2023-05-03T13:18:28;100512.91;;;19.46;78.20
58775;BME280;44545;47.480;19.024;2023-05-03T13:21:30;100514.87;;;19.56;79.27
58775;BME280;44545;47.480;19.024;2023-05-03T13:24:33;100502.63;;;19.61;79.55
58775;BME280;44545;47.480;19.024;2023-05-03T13:27:36;100509.28;;;19.41;78.65
58775;BME280;44545;47.480;19.024;2023-05-03T13:30:38;100499.41;;;19.32;80.19
58775;BME280;44545;47.480;19.024;2023-05-03T13:33:40;100496.31;;;19.09;80.76
58775;BME280;44545;47.480;19.024;2023-05-03T13:36:43;100496.25;;;19.08;80.55
58775;BME280;44545;47.480;19.024;2023-05-03T13:39:45;100493.41;;;19.41;79.41
58775;BME280;44545;47.480;19.024;2023-05-03T13:42:48;100497.72;;;19.78;77.90
58775;BME280;44545;47.480;19.024;2023-05-03T13:45:50;100492.22;;;19.67;76.79
58775;BME280;44545;47.480;19.024;2023-05-03T13:48:54;100482.34;;;19.60;77.29
58775;BME280;44545;47.480;19.024;2023-05-03T13:51:57;100480.53;;;19.58;77.92
58775;BME280;44545;47.480;19.024;2023-05-03T13:55:00;100475.84;;;19.88;76.58
58775;BME280;44545;47.480;19.024;2023-05-03T13:58:02;100476.75;;;19.90;75.84
58775;BME280;44545;47.480;19.024;2023-05-03T14:01:05;100484.22;;;20.13;75.93
58775;BME280;44545;47.480;19.024;2023-05-03T14:04:08;100479.75;;;20.10;76.42
58775;BME280;44545;47.480;19.024;2023-05-03T14:07:13;100470.13;;;20.16;73.68
58775;BME280;44545;47.480;19.024;2023-05-03T14:10:16;100469.78;;;19.96;74.38
58775;BME280;44545;47.480;19.024;2023-05-03T14:13:18;100469.44;;;20.27;73.07
58775;BME280;44545;47.480;19.024;2023-05-03T14:16:22;100469.00;;;20.54;75.29
58775;BME280;44545;47.480;19.024;2023-05-03T14:19:40;100466.75;;;20.24;72.09
58775;BME280;44545;47.480;19.024;2023-05-03T14:22:43;100462.44;;;20.31;72.04
58775;BME280;44545;47.480;19.024;2023-05-03T14:25:46;100466.56;;;20.67;71.01
58775;BME280;44545;47.480;19.024;2023-05-03T14:28:48;100455.69;;;20.51;69.72
58775;BME280;44545;47.480;19.024;2023-05-03T14:31:50;100463.84;;;20.64;73.00
58775;BME280;44545;47.480;19.024;2023-05-03T14:34:54;100462.75;;;21.12;71.91
58775;BME280;44545;47.480;19.024;2023-05-03T14:37:56;100455.59;;;21.05;68.04
58775;BME280;44545;47.480;19.024;2023-05-03T14:40:58;100451.47;;;20.63;68.04
58775;BME280;44545;47.480;19.024;2023-05-03T14:44:01;100457.06;;;20.26;70.54
58775;BME280;44545;47.480;19.024;2023-05-03T14:47:04;100462.12;;;20.12;72.44
58775;BME280;44545;47.480;19.024;2023-05-03T14:50:07;100461.38;;;19.69;74.43
58775;BME280;44545;47.480;19.024;2023-05-03T14:53:10;100463.44;;;19.87;75.30
58775;BME280;44545;47.480;19.024;2023-05-03T14:56:12;100467.53;;;19.68;74.40
58775;BME280;44545;47.480;19.024;2023-05-03T14:59:15;100472.22;;;19.38;76.87
58775;BME280;44545;47.480;19.024;2023-05-03T15:02:17;100472.50;;;19.09;77.12
58775;BME280;44545;47.480;19.024;2023-05-03T15:05:20;100473.50;;;19.14;77.78
58775;BME280;44545;47.480;19.024;2023-05-03T15:08:25;100470.84;;;19.14;77.91
58775;BME280;44545;47.480;19.024;2023-05-03T15:11:28;100473.63;;;19.20;80.30
58775;BME280;44545;47.480;19.024;2023-05-03T15:14:30;100469.59;;;18.97;80.37
58775;BME280;44545;47.480;19.024;2023-05-03T15:17:33;100473.34;;;19.07;78.72
58775;BME280;44545;47.480;19.024;2023-05-03T15:20:35;100472.56;;;19.12;78.89
